Time;durP1;ratioP1;P1;durP2;ratioP2;P2;SDS_P1;SDS_P2;PMS_P1;PMS_P2;Temp;Humidity;BMP_temperature;BMP_pressure;BME280_temperature;BME280_humidity;BME280_pressure;Samples;Min_cycle;Max_cycle;Signal;HPM_P1;HPM_P2
2023/05/25 00:00:41;;;;;;;;;;;;;;;18.77;45.30;102518.44;7358872;19;19921;-57
2023/05/25 00:03:07;;;;;;;;;;;;;;;18.77;45.57;102523.72;7352604;19;19918;-57
2023/05/25 00:05:32;;;;;;;;;;;;;;;18.73;45.37;102522.06;7358292;19;20689;-56
2023/05/25 00:07:57;;;;;;;;;;;;;;;18.70;45.46;102518.63;7353949;19;19922;-57
2023/05/25 00:10:23;;;;;;;;;;;;;;;18.67;45.89;102522.22;7358481;19;19919;-57
2023/05/25 00:12:48;;;;;;;;;;;;;;;18.61;45.83;102511.78;7353798;19;20402;-57
2023/05/25 00:15:13;;;;;;;;;;;;;;;18.57;45.45;102516.28;7357963;19;21478;-57
2023/05/25 00:17:39;;;;;;;;;;;;;;;18.51;45.95;102510.31;7357720;19;19930;-55
2023/05/25 00:20:08;;;;;;;;;;;;;;;18.45;45.57;102510.44;7352319;19;19923;-57
2023/05/25 00:22:34;;;;;;;;;;;;;;;18.39;45.85;102512.34;7354487;19;19922;-57
2023/05/25 00:24:59;;;;;;;;;;;;;;;18.33;45.90;102517.81;7357129;19;19926;-57
2023/05/25 00:27:24;;;;;;;;;;;;;;;18.27;45.49;102517.09;7354095;19;19929;-56
2023/05/25 00:29:50;;;;;;;;;;;;;;;18.21;46.00;102518.13;7352398;19;19919;-57
2023/05/25 00:32:15;;;;;;;;;;;;;;;18.15;46.02;102513.00;7356318;19;19932;-57
2023/05/25 00:34:41;;;;;;;;;;;;;;;18.10;45.88;102514.91;7353523;19;19923;-57
2023/05/25 00:37:06;;;;;;;;;;;;;;;18.04;46.08;102515.03;7355842;19;19939;-57
2023/05/25 00:39:31;;;;;;;;;;;;;;;17.98;46.20;102512.53;7349979;19;19978;-57
2023/05/25 00:41:57;;;;;;;;;;;;;;;17.93;45.96;102512.66;7351879;19;19918;-56
2023/05/25 00:44:23;;;;;;;;;;;;;;;17.87;45.97;102518.09;7355715;19;20001;-57
2023/05/25 00:46:49;;;;;;;;;;;;;;;17.82;46.22;102514.69;7350690;19;19982;-55
2023/05/25 00:49:16;;;;;;;;;;;;;;;17.74;45.92;102517.53;7357055;19;19918;-56
2023/05/25 00:51:45;;;;;;;;;;;;;;;17.70;45.79;102523.75;7353762;19;20144;-56
2023/05/25 00:54:13;;;;;;;;;;;;;;;17.62;46.33;102523.06;7352868;19;20598;-57
2023/05/25 00:56:39;;;;;;;;;;;;;;;17.57;46.10;102530.22;7357004;19;19914;-57
2023/05/25 00:59:05;;;;;;;;;;;;;;;17.52;46.50;102524.19;7352997;19;20458;-57
2023/05/25 01:01:38;;;;;;;;;;;;;;;17.47;46.51;102531.31;7355498;19;19922;-57
2023/05/25 01:04:06;;;;;;;;;;;;;;;17.41;46.74;102534.13;7352532;19;20281;-57
2023/05/25 01:06:32;;;;;;;;;;;;;;;17.35;46.42;102535.13;7357608;19;20660;-57
2023/05/25 01:09:00;;;;;;;;;;;;;;;17.32;46.79;102538.69;7352314;19;19919;-57
2023/05/25 01:11:30;;;;;;;;;;;;;;;17.27;46.15;102531.75;7353385;19;19925;-57
2023/05/25 01:13:57;;;;;;;;;;;;;;;17.23;46.48;102535.38;7355772;19;19938;-57
2023/05/25 01:16:24;;;;;;;;;;;;;;;17.17;46.57;102531.09;7352953;19;20469;-56
2023/05/25 01:18:51;;;;;;;;;;;;;;;17.12;46.85;102539.09;7355302;19;19918;-57
2023/05/25 01:21:21;;;;;;;;;;;;;;;17.07;46.86;102534.81;7360492;19;20553;-56
2023/05/25 01:23:52;;;;;;;;;;;;;;;17.01;46.87;102535.81;7358915;19;20070;-57
2023/05/25 01:26:19;;;;;;;;;;;;;;;16.97;47.05;102539.41;7359277;19;19919;-56
2023/05/25 01:28:49;;;;;;;;;;;;;;;16.92;46.93;102536.00;7358958;19;20027;-56
2023/05/25 01:31:15;;;;;;;;;;;;;;;16.88;46.74;102538.72;7361080;19;19922;-56
2023/05/25 01:33:41;;;;;;;;;;;;;;;16.84;46.86;102545.84;7361109;19;19946;-59
2023/05/25 01:36:06;;;;;;;;;;;;;;;16.79;47.13;102535.38;7360556;19;19934;-59
2023/05/25 01:38:32;;;;;;;;;;;;;;;16.77;46.95;102541.56;7362201;19;20733;-59
2023/05/25 01:40:57;;;;;;;;;;;;;;;16.74;47.41;102541.66;7361211;19;19926;-59
2023/05/25 01:43:22;;;;;;;;;;;;;;;16.71;47.38;102542.56;7359865;19;19925;-58
2023/05/25 01:45:48;;;;;;;;;;;;;;;16.67;47.35;102540.84;7356947;19;19922;-57
2023/05/25 01:48:31;;;;;;;;;;;;;;;16.66;47.32;102539.09;7356516;19;19919;-57
2023/05/25 01:50:59;;;;;;;;;;;;;;;16.63;47.43;102543.59;7356117;19;20541;-57
2023/05/25 01:53:35;;;;;;;;;;;;;;;16.58;47.48;102536.63;7358007;19;19966;-57
2023/05/25 01:56:10;;;;;;;;;;;;;;;16.55;47.18;102543.72;7358704;19;19938;-56
2023/05/25 01:58:38;;;;;;;;;;;;;;;16.51;47.31;102549.94;7339944;19;19923;-56
2023/05/25 02:01:03;;;;;;;;;;;;;;;16.45;47.41;102550.91;7358812;19;20289;-56
2023/05/25 02:03:28;;;;;;;;;;;;;;;16.42;47.41;102552.72;7354391;19;19923;-57
2023/05/25 02:05:54;;;;;;;;;;;;;;;16.35;47.40;102544.94;7354834;19;19918;-57
2023/05/25 02:08:20;;;;;;;;;;;;;;;16.30;47.74;102541.50;7358160;19;19915;-57
2023/05/25 02:10:45;;;;;;;;;;;;;;;16.26;47.82;102539.81;7356188;19;20954;-59
2023/05/25 02:13:10;;;;;;;;;;;;;;;16.22;47.69;102548.69;7356706;19;19930;-58
2023/05/25 02:15:36;;;;;;;;;;;;;;;16.18;47.60;102554.91;7355044;19;19918;-59
2023/05/25 02:18:01;;;;;;;;;;;;;;;16.14;47.55;102555.84;7349602;19;20026;-57
2023/05/25 02:20:27;;;;;;;;;;;;;;;16.09;47.93;102557.69;7356912;19;19986;-59
2023/05/25 02:22:52;;;;;;;;;;;;;;;16.05;47.84;102556.84;7355552;19;19930;-59
2023/05/25 02:25:17;;;;;;;;;;;;;;;16.00;47.64;102557.81;7356722;19;19955;-59
2023/05/25 02:27:43;;;;;;;;;;;;;;;15.96;48.20;102558.75;7348715;19;19926;-59
2023/05/25 02:30:08;;;;;;;;;;;;;;;15.92;47.97;102559.72;7331361;19;20703;-59
2023/05/25 02:32:34;;;;;;;;;;;;;;;15.88;47.77;102561.53;7358345;19;20446;-59
2023/05/25 02:35:00;;;;;;;;;;;;;;;15.85;47.95;102563.34;7352774;19;19962;-57
2023/05/25 02:37:25;;;;;;;;;;;;;;;15.80;47.91;102566.91;7357540;19;19923;-59
2023/05/25 02:39:50;;;;;;;;;;;;;;;15.78;48.05;102562.56;7351249;19;19915;-58
2023/05/25 02:42:16;;;;;;;;;;;;;;;15.73;47.55;102559.13;7358025;19;19929;-58
2023/05/25 02:44:46;;;;;;;;;;;;;;;15.70;47.94;102561.78;7353869;19;19919;-59
2023/05/25 02:47:12;;;;;;;;;;;;;;;15.66;48.04;102562.72;7353726;19;19919;-59
2023/05/25 02:49:37;;;;;;;;;;;;;;;15.62;48.18;102572.41;7355269;19;19929;-59
2023/05/25 02:52:03;;;;;;;;;;;;;;;15.58;48.06;102560.19;7334313;19;19934;-58
2023/05/25 02:54:29;;;;;;;;;;;;;;;15.53;47.71;102557.59;7358853;19;20415;-58
2023/05/25 02:56:54;;;;;;;;;;;;;;;15.50;47.62;102567.28;7356060;19;19925;-58
2023/05/25 02:59:20;;;;;;;;;;;;;;;15.07;47.68;102496.81;7360267;19;20331;-58
2023/05/25 03:01:45;;;;;;;;;;;;;;;15.43;47.92;102573.53;7352423;19;19938;-59
2023/05/25 03:04:10;;;;;;;;;;;;;;;15.37;47.94;102577.13;7340725;19;19930;-59
2023/05/25 03:06:36;;;;;;;;;;;;;;;15.34;48.50;102573.66;7356150;19;19927;-58
2023/05/25 03:09:03;;;;;;;;;;;;;;;15.29;48.44;102587.75;7355941;19;20002;-59
2023/05/25 03:11:29;;;;;;;;;;;;;;;15.25;48.24;102580.75;7361032;19;19946;-59
2023/05/25 03:13:54;;;;;;;;;;;;;;;15.22;48.38;102595.75;7356700;19;19926;-59
2023/05/25 03:16:22;;;;;;;;;;;;;;;15.18;47.68;102587.00;7357116;19;19926;-59
2023/05/25 03:18:47;;;;;;;;;;;;;;;15.14;47.73;102585.28;7360008;19;19939;-59
2023/05/25 03:21:12;;;;;;;;;;;;;;;15.10;48.13;102596.72;7354542;19;20601;-58
2023/05/25 03:23:37;;;;;;;;;;;;;;;15.05;47.56;102591.56;7356200;19;19923;-58
2023/05/25 03:26:03;;;;;;;;;;;;;;;15.00;47.89;102592.47;7356270;19;19919;-59
2023/05/25 03:28:28;;;;;;;;;;;;;;;14.96;47.94;102596.03;7351100;19;20002;-59
2023/05/25 03:30:53;;;;;;;;;;;;;;;14.91;47.65;102588.19;7357697;19;19922;-59
2023/05/25 03:33:18;;;;;;;;;;;;;;;14.88;47.95;102597.88;7354818;19;19927;-58
2023/05/25 03:35:44;;;;;;;;;;;;;;;14.84;47.84;102590.88;7351671;19;19918;-59
2023/05/25 03:38:10;;;;;;;;;;;;;;;14.81;47.95;102597.06;7347927;19;20606;-59
2023/05/25 03:40:35;;;;;;;;;;;;;;;14.77;48.04;102597.97;7354584;19;19947;-59
2023/05/25 03:43:00;;;;;;;;;;;;;;;14.74;47.90;102600.63;7355786;19;20347;-57
2023/05/25 03:45:26;;;;;;;;;;;;;;;14.69;48.35;102605.94;7356988;19;19923;-59
2023/05/25 03:47:51;;;;;;;;;;;;;;;14.36;48.28;102551.00;7355826;19;19976;-59
2023/05/25 03:50:17;;;;;;;;;;;;;;;14.63;48.13;102597.22;7353952;19;19931;-59
2023/05/25 03:52:42;;;;;;;;;;;;;;;14.59;48.09;102606.91;7357678;19;19926;-58
2023/05/25 03:55:08;;;;;;;;;;;;;;;14.57;48.42;102603.41;7356024;19;19936;-59
2023/05/25 03:57:33;;;;;;;;;;;;;;;14.53;48.31;102596.44;7356997;19;19926;-59
2023/05/25 03:59:58;;;;;;;;;;;;;;;14.51;48.37;102608.75;7356457;19;20032;-58
2023/05/25 04:02:23;;;;;;;;;;;;;;;14.47;48.30;102601.72;7355418;19;20495;-59
2023/05/25 04:04:50;;;;;;;;;;;;;;;14.44;48.22;102607.00;7354554;19;19927;-58
2023/05/25 04:07:15;;;;;;;;;;;;;;;14.39;48.39;102609.66;7353793;19;19921;-58
2023/05/25 04:09:43;;;;;;;;;;;;;;;14.37;48.46;102605.31;7357126;19;19950;-58
2023/05/25 04:12:09;;;;;;;;;;;;;;;14.35;48.82;102617.59;7356041;19;19918;-59
2023/05/25 04:14:34;;;;;;;;;;;;;;;14.30;48.69;102614.16;7355387;19;21823;-58
2023/05/25 04:17:00;;;;;;;;;;;;;;;14.26;48.69;102619.41;7357917;19;19946;-58
2023/05/25 04:19:25;;;;;;;;;;;;;;;14.24;48.94;102623.81;7355250;19;19930;-59
2023/05/25 04:21:50;;;;;;;;;;;;;;;14.20;49.01;102627.34;7353155;19;19923;-58
2023/05/25 04:24:15;;;;;;;;;;;;;;;14.18;48.80;102623.84;7354952;19;20199;-59
2023/05/25 04:26:41;;;;;;;;;;;;;;;14.15;49.00;102616.00;7357867;19;19919;-58
2023/05/25 04:29:06;;;;;;;;;;;;;;;14.13;48.79;102616.88;7353344;19;19927;-58
2023/05/25 04:31:32;;;;;;;;;;;;;;;14.09;49.01;102621.28;7352666;19;19926;-59
2023/05/25 04:33:57;;;;;;;;;;;;;;;14.06;48.96;102621.31;7356222;19;20268;-58
2023/05/25 04:36:23;;;;;;;;;;;;;;;14.03;48.82;102621.31;7352888;19;19926;-59
2023/05/25 04:38:53;;;;;;;;;;;;;;;14.01;48.84;102628.34;7357658;19;20474;-59
2023/05/25 04:41:19;;;;;;;;;;;;;;;13.99;48.71;102624.88;7352104;19;19919;-58
2023/05/25 04:43:44;;;;;;;;;;;;;;;13.95;48.43;102624.00;7356653;19;19954;-59
2023/05/25 04:46:10;;;;;;;;;;;;;;;13.95;48.57;102636.25;7353197;19;19919;-59
2023/05/25 04:48:37;;;;;;;;;;;;;;;13.92;48.56;102644.16;7353268;19;19918;-59
2023/05/25 04:51:03;;;;;;;;;;;;;;;13.89;49.14;102637.16;7356013;19;19922;-59
2023/05/25 04:53:28;;;;;;;;;;;;;;;13.88;49.23;102642.41;7353076;19;19915;-59
2023/05/25 04:55:54;;;;;;;;;;;;;;;13.87;48.95;102651.19;7352820;19;19914;-59
2023/05/25 04:58:19;;;;;;;;;;;;;;;13.84;48.67;102644.19;7354810;19;19922;-58
2023/05/25 05:00:46;;;;;;;;;;;;;;;13.83;48.08;102645.06;7352996;19;19926;-59
2023/05/25 05:03:12;;;;;;;;;;;;;;;13.82;48.76;102645.06;7355306;19;19929;-59
2023/05/25 05:05:37;;;;;;;;;;;;;;;13.80;48.39;102649.47;7353014;19;20933;-59
2023/05/25 05:08:02;;;;;;;;;;;;;;;13.77;48.55;102645.97;7354780;19;19934;-59
2023/05/25 05:10:28;;;;;;;;;;;;;;;13.77;48.63;102645.09;7354277;19;19918;-59
2023/05/25 05:12:53;;;;;;;;;;;;;;;13.74;48.57;102646.00;7353740;19;19925;-59
2023/05/25 05:15:18;;;;;;;;;;;;;;;13.71;48.57;102635.50;7353986;19;19926;-58
2023/05/25 05:17:44;;;;;;;;;;;;;;;13.70;48.77;102638.13;7350801;19;20569;-58
2023/05/25 05:20:09;;;;;;;;;;;;;;;13.68;48.94;102640.75;7354085;19;19945;-59
2023/05/25 05:22:36;;;;;;;;;;;;;;;13.68;48.51;102643.38;7350454;19;19919;-58
2023/05/25 05:25:01;;;;;;;;;;;;;;;13.66;48.53;102642.53;7352756;19;19934;-58
2023/05/25 05:27:26;;;;;;;;;;;;;;;13.65;48.83;102630.28;7353369;19;20373;-58
2023/05/25 05:29:51;;;;;;;;;;;;;;;13.38;48.61;102591.91;7351921;19;19918;-58
2023/05/25 05:32:17;;;;;;;;;;;;;;;13.64;48.88;102639.03;7355067;19;19922;-59
2023/05/25 05:34:42;;;;;;;;;;;;;;;13.64;48.79;102646.06;7354877;19;19915;-59
2023/05/25 05:37:07;;;;;;;;;;;;;;;13.63;49.33;102646.91;7352935;19;19990;-58
2023/05/25 05:39:32;;;;;;;;;;;;;;;13.62;49.43;102646.03;7352583;19;19958;-58
2023/05/25 05:41:58;;;;;;;;;;;;;;;13.62;49.70;102643.41;7348471;19;19923;-58
2023/05/25 05:44:23;;;;;;;;;;;;;;;13.64;49.46;102644.28;7354280;19;20511;-59
2023/05/25 05:46:49;;;;;;;;;;;;;;;13.64;49.60;102646.91;7352564;19;20451;-57
2023/05/25 05:49:14;;;;;;;;;;;;;;;13.66;49.68;102641.66;7354868;19;19929;-59
2023/05/25 05:51:39;;;;;;;;;;;;;;;13.67;49.17;102639.00;7353576;19;19982;-59
2023/05/25 05:54:05;;;;;;;;;;;;;;;13.69;49.51;102642.53;7353081;19;19922;-59
2023/05/25 05:56:30;;;;;;;;;;;;;;;13.70;49.08;102652.13;7346871;19;19971;-59
2023/05/25 05:58:56;;;;;;;;;;;;;;;13.72;49.40;102657.38;7341887;19;19915;-58
2023/05/25 06:01:22;;;;;;;;;;;;;;;13.74;50.01;102660.88;7350139;19;20748;-58
2023/05/25 06:03:47;;;;;;;;;;;;;;;13.35;49.47;102591.03;7350237;19;19926;-58
2023/05/25 06:06:13;;;;;;;;;;;;;;;13.77;49.93;102666.09;7353672;19;19954;-59
2023/05/25 06:08:40;;;;;;;;;;;;;;;13.80;49.72;102665.22;7357142;19;19929;-59
2023/05/25 06:11:05;;;;;;;;;;;;;;;13.82;49.77;102658.22;7355058;19;19918;-58
2023/05/25 06:13:30;;;;;;;;;;;;;;;13.85;50.18;102663.47;7357322;19;20403;-58
2023/05/25 06:15:56;;;;;;;;;;;;;;;13.86;49.91;102666.06;7355818;19;19982;-59
2023/05/25 06:18:21;;;;;;;;;;;;;;;13.89;50.36;102662.53;7352441;19;19926;-59
2023/05/25 06:20:46;;;;;;;;;;;;;;;13.91;50.14;102661.66;7353966;19;20332;-59
2023/05/25 06:23:12;;;;;;;;;;;;;;;13.95;50.08;102666.03;7355027;19;19927;-59
2023/05/25 06:25:38;;;;;;;;;;;;;;;13.98;49.74;102665.13;7352658;19;19919;-59
2023/05/25 06:28:03;;;;;;;;;;;;;;;14.01;49.91;102662.50;7354859;19;19927;-58
2023/05/25 06:30:28;;;;;;;;;;;;;;;14.04;49.91;102665.09;7355854;19;19936;-59
2023/05/25 06:32:54;;;;;;;;;;;;;;;14.06;50.39;102668.59;7355831;19;20726;-59
2023/05/25 06:35:19;;;;;;;;;;;;;;;14.11;49.91;102672.06;7350486;19;19927;-58
2023/05/25 06:37:45;;;;;;;;;;;;;;;14.14;50.37;102677.31;7356045;19;19922;-59
2023/05/25 06:40:11;;;;;;;;;;;;;;;14.16;50.46;102680.78;7358874;19;20556;-59
2023/05/25 06:42:36;;;;;;;;;;;;;;;14.18;50.12;102684.28;7353342;19;20345;-58
2023/05/25 06:45:02;;;;;;;;;;;;;;;14.24;50.38;102688.59;7353599;19;20012;-58
2023/05/25 06:47:27;;;;;;;;;;;;;;;14.26;50.35;102677.22;7356999;19;19911;-59
2023/05/25 06:49:53;;;;;;;;;;;;;;;14.31;50.13;102689.47;7348878;19;19930;-58
2023/05/25 06:52:18;;;;;;;;;;;;;;;14.34;50.57;102689.44;7354406;19;19939;-58
2023/05/25 06:54:43;;;;;;;;;;;;;;;14.37;50.20;102690.28;7350711;19;19926;-58
2023/05/25 06:57:08;;;;;;;;;;;;;;;14.42;50.21;102703.41;7351244;19;19926;-58
2023/05/25 06:59:34;;;;;;;;;;;;;;;14.45;50.40;102700.78;7352173;19;19938;-59
2023/05/25 07:01:59;;;;;;;;;;;;;;;14.49;50.45;102699.88;7356885;19;19968;-58
2023/05/25 07:04:25;;;;;;;;;;;;;;;14.53;50.19;102698.97;7346751;19;19922;-59
2023/05/25 07:06:51;;;;;;;;;;;;;;;14.57;50.37;102690.19;7355169;19;19919;-58
2023/05/25 07:09:16;;;;;;;;;;;;;;;14.62;49.90;102695.41;7350082;19;19915;-59
2023/05/25 07:11:41;;;;;;;;;;;;;;;14.67;49.89;102698.88;7342711;19;20689;-59
2023/05/25 07:14:07;;;;;;;;;;;;;;;14.70;50.00;102694.47;7324992;19;19926;-59
2023/05/25 07:16:33;;;;;;;;;;;;;;;14.74;50.54;102690.91;7347942;19;20336;-59
2023/05/25 07:18:58;;;;;;;;;;;;;;;14.79;49.77;102693.50;7339433;19;21029;-59
2023/05/25 07:21:23;;;;;;;;;;;;;;;14.83;50.36;102699.63;7345013;19;20011;-58
2023/05/25 07:23:49;;;;;;;;;;;;;;;14.88;49.83;102693.44;7350360;19;19922;-59
2023/05/25 07:26:15;;;;;;;;;;;;;;;14.93;50.45;102696.03;7353681;19;20394;-54
2023/05/25 07:28:40;;;;;;;;;;;;;;;14.97;50.18;102695.13;7352161;19;20435;-59
2023/05/25 07:31:05;;;;;;;;;;;;;;;15.01;50.24;102689.81;7355239;19;19931;-59
2023/05/25 07:33:31;;;;;;;;;;;;;;;15.07;50.15;102693.28;7352091;19;19930;-58
2023/05/25 07:35:56;;;;;;;;;;;;;;;15.11;50.52;102695.00;7350338;19;19914;-59
2023/05/25 07:38:21;;;;;;;;;;;;;;;15.15;50.59;102699.31;7357182;19;19938;-59
2023/05/25 07:40:47;;;;;;;;;;;;;;;15.19;50.50;102694.00;7347783;19;19922;-58
2023/05/25 07:43:13;;;;;;;;;;;;;;;15.24;50.03;102696.59;7345437;19;19935;-59
2023/05/25 07:45:39;;;;;;;;;;;;;;;15.29;49.89;102700.06;7346103;19;19927;-59
2023/05/25 07:48:05;;;;;;;;;;;;;;;15.35;49.80;102702.63;7352379;19;19922;-58
2023/05/25 07:50:31;;;;;;;;;;;;;;;15.40;49.95;102708.72;7350024;19;19946;-59
2023/05/25 07:52:58;;;;;;;;;;;;;;;15.45;49.99;102701.63;7350301;19;20330;-59
2023/05/25 07:55:25;;;;;;;;;;;;;;;15.50;50.21;102706.84;7344253;19;20267;-58
2023/05/25 07:57:50;;;;;;;;;;;;;;;15.55;49.72;102699.75;7352027;19;19955;-59
2023/05/25 08:00:15;;;;;;;;;;;;;;;15.60;50.22;102705.84;7352423;19;19918;-59
2023/05/25 08:02:41;;;;;;;;;;;;;;;15.66;50.13;102716.38;7354994;19;19927;-60
2023/05/25 08:05:06;;;;;;;;;;;;;;;15.71;50.55;102714.56;7348076;19;19922;-58
2023/05/25 08:07:32;;;;;;;;;;;;;;;15.78;50.46;102720.63;7354102;19;19915;-58
2023/05/25 08:09:57;;;;;;;;;;;;;;;15.83;50.38;102717.03;7344875;19;20279;-58
2023/05/25 08:12:22;;;;;;;;;;;;;;;15.90;50.25;102719.59;7344359;19;19926;-58
2023/05/25 08:14:47;;;;;;;;;;;;;;;15.96;50.17;102719.50;7353341;19;19930;-58
2023/05/25 08:17:13;;;;;;;;;;;;;;;16.02;50.22;102714.16;7349305;19;20506;-58
2023/05/25 08:19:38;;;;;;;;;;;;;;;16.08;49.93;102727.25;7354812;19;19914;-58
2023/05/25 08:22:03;;;;;;;;;;;;;;;16.13;49.81;102720.16;7349387;19;19979;-59
2023/05/25 08:24:28;;;;;;;;;;;;;;;16.18;50.01;102720.97;7352948;19;19918;-58
2023/05/25 08:26:54;;;;;;;;;;;;;;;16.24;50.29;102722.66;7350971;19;19933;-56
2023/05/25 08:29:20;;;;;;;;;;;;;;;16.29;50.29;102721.69;7353501;19;19914;-59
2023/05/25 08:31:48;;;;;;;;;;;;;;;16.36;49.88;102719.81;7354390;19;20600;-58
2023/05/25 08:34:13;;;;;;;;;;;;;;;16.41;49.65;102723.25;7350474;19;19919;-59
2023/05/25 08:36:38;;;;;;;;;;;;;;;16.47;49.96;102717.03;7350438;19;19914;-59
2023/05/25 08:39:04;;;;;;;;;;;;;;;16.52;49.78;102712.53;7340454;19;19939;-57
2023/05/25 08:41:31;;;;;;;;;;;;;;;16.57;50.01;102713.34;7351499;19;19914;-59
2023/05/25 08:43:56;;;;;;;;;;;;;;;16.62;49.71;102716.78;7339148;19;20481;-58
2023/05/25 08:46:32;;;;;;;;;;;;;;;16.67;49.58;102714.94;7351424;19;19925;-58
2023/05/25 08:49:08;;;;;;;;;;;;;;;16.74;49.78;102719.28;7350001;19;19918;-58
2023/05/25 08:51:36;;;;;;;;;;;;;;;16.81;49.78;102725.31;7349794;19;19975;-60
2023/05/25 08:54:05;;;;;;;;;;;;;;;16.87;49.46;102722.56;7344761;19;19926;-58
2023/05/25 08:56:31;;;;;;;;;;;;;;;16.93;49.46;102721.59;7350484;19;20447;-58
2023/05/25 08:59:01;;;;;;;;;;;;;;;16.99;49.72;102718.88;7349675;19;19931;-58
2023/05/25 09:01:30;;;;;;;;;;;;;;;17.03;49.75;102723.19;7350514;19;19918;-57
2023/05/25 09:03:57;;;;;;;;;;;;;;;17.10;49.30;102722.19;7348383;19;20458;-56
2023/05/25 09:06:23;;;;;;;;;;;;;;;17.16;49.37;102719.44;7350771;19;19943;-54
2023/05/25 09:08:48;;;;;;;;;;;;;;;17.23;49.10;102717.53;7349550;19;20474;-55
2023/05/25 09:11:14;;;;;;;;;;;;;;;17.28;49.36;102713.06;7347499;19;19917;-55
2023/05/25 09:13:39;;;;;;;;;;;;;;;17.33;48.86;102716.47;7352710;19;19921;-56
2023/05/25 09:16:05;;;;;;;;;;;;;;;17.39;49.29;102716.38;7349157;19;19918;-54
2023/05/25 09:18:30;;;;;;;;;;;;;;;17.48;49.13;102717.97;7351923;19;20682;-55
2023/05/25 09:20:55;;;;;;;;;;;;;;;17.61;49.24;102717.69;7342333;19;20272;-56
2023/05/25 09:23:21;;;;;;;;;;;;;;;17.79;49.10;102715.59;7350273;19;19935;-55
2023/05/25 09:25:47;;;;;;;;;;;;;;;18.02;49.10;102713.34;7344284;19;20435;-56
2023/05/25 09:28:12;;;;;;;;;;;;;;;18.28;49.24;102710.13;7351847;19;20324;-56
2023/05/25 09:30:37;;;;;;;;;;;;;;;18.57;48.95;102719.16;7349630;19;19915;-56
2023/05/25 09:33:12;;;;;;;;;;;;;;;18.85;49.02;102712.31;7351959;19;19915;-56
2023/05/25 09:35:38;;;;;;;;;;;;;;;19.21;49.01;102712.28;7349721;19;20930;-56
2023/05/25 09:38:03;;;;;;;;;;;;;;;19.52;48.58;102709.66;7349712;19;19923;-56
2023/05/25 09:40:29;;;;;;;;;;;;;;;19.83;48.79;102714.97;7351937;19;20303;-57
2023/05/25 09:42:56;;;;;;;;;;;;;;;20.15;48.53;102710.47;7355841;19;19918;-56
2023/05/25 09:45:22;;;;;;;;;;;;;;;20.50;48.50;102711.19;7355100;19;20841;-55
2023/05/25 09:47:47;;;;;;;;;;;;;;;20.84;48.31;102710.94;7357997;19;19918;-56
2023/05/25 09:50:12;;;;;;;;;;;;;;;21.16;48.28;102702.72;7355637;19;20434;-56
2023/05/25 09:52:37;;;;;;;;;;;;;;;21.50;48.42;102707.75;7357493;19;20001;-56
2023/05/25 09:55:03;;;;;;;;;;;;;;;21.85;48.29;102702.91;7352231;19;19926;-56
2023/05/25 09:57:28;;;;;;;;;;;;;;;22.17;47.32;102711.44;7356347;19;19919;-57
2023/05/25 09:59:53;;;;;;;;;;;;;;;22.49;47.25;102705.69;7353323;19;19956;-56
2023/05/25 10:02:19;;;;;;;;;;;;;;;22.84;47.58;102711.34;7351143;19;19923;-57
2023/05/25 10:04:45;;;;;;;;;;;;;;;23.22;46.91;102706.22;7357424;19;24495;-56
2023/05/25 10:07:10;;;;;;;;;;;;;;;23.58;46.86;102702.81;7351409;19;20704;-56
2023/05/25 10:09:42;;;;;;;;;;;;;;;23.94;46.81;102711.81;7355892;19;19923;-56
2023/05/25 10:12:07;;;;;;;;;;;;;;;24.34;46.75;102715.25;7352454;19;20364;-56
2023/05/25 10:14:35;;;;;;;;;;;;;;;24.70;46.56;102701.03;7357816;19;19963;-57
2023/05/25 10:17:03;;;;;;;;;;;;;;;25.06;46.60;102704.53;7354867;19;19923;-55
2023/05/25 10:19:31;;;;;;;;;;;;;;;25.39;45.60;102695.66;7355037;19;19945;-56
2023/05/25 10:22:06;;;;;;;;;;;;;;;25.75;46.32;102702.66;7352422;19;19915;-57
2023/05/25 10:24:42;;;;;;;;;;;;;;;26.08;45.34;102708.81;7356287;19;19918;-57
2023/05/25 10:27:09;;;;;;;;;;;;;;;26.39;44.51;102709.75;7352356;19;19918;-57
2023/05/25 10:29:36;;;;;;;;;;;;;;;26.69;43.96;102711.63;7354505;19;19930;-57
2023/05/25 10:32:03;;;;;;;;;;;;;;;27.00;43.92;102700.78;7353944;19;19923;-57
2023/05/25 10:34:28;;;;;;;;;;;;;;;27.32;43.21;102701.56;7356403;19;19947;-57
2023/05/25 10:36:55;;;;;;;;;;;;;;;27.66;43.38;102705.66;7355033;19;19919;-57
2023/05/25 10:39:21;;;;;;;;;;;;;;;28.00;43.31;102713.41;7357183;19;20292;-57
2023/05/25 10:41:47;;;;;;;;;;;;;;;28.36;43.42;102720.94;7354383;19;19914;-56
2023/05/25 10:44:12;;;;;;;;;;;;;;;28.66;42.11;102710.81;7352105;19;19942;-57
2023/05/25 10:46:38;;;;;;;;;;;;;;;29.00;43.08;102705.00;7356504;19;19986;-57
2023/05/25 10:49:03;;;;;;;;;;;;;;;29.32;42.86;102710.81;7357381;19;19927;-56
2023/05/25 10:51:38;;;;;;;;;;;;;;;29.63;42.42;102710.38;7353316;19;19914;-57
2023/05/25 10:54:03;;;;;;;;;;;;;;;29.96;41.96;102711.59;7356472;19;19970;-58
2023/05/25 10:56:28;;;;;;;;;;;;;;;30.21;41.25;102711.53;7357259;19;20021;-57
2023/05/25 10:58:54;;;;;;;;;;;;;;;30.50;41.46;102705.78;7356922;19;20259;-57
2023/05/25 11:01:19;;;;;;;;;;;;;;;30.78;41.22;102706.44;7353089;19;19943;-57
2023/05/25 11:04:12;;;;;;;;;;;;;;;31.07;40.32;102721.19;7354182;19;19949;-57
2023/05/25 11:06:42;;;;;;;;;;;;;;;31.41;40.17;102707.78;7251149;19;2004430;-56
2023/05/25 11:09:22;;;;;;;;;;;;;;;31.73;39.87;102702.47;7354833;19;19932;-57
2023/05/25 11:11:48;;;;;;;;;;;;;;;31.99;38.15;102700.41;7356359;19;20480;-57
2023/05/25 11:14:19;;;;;;;;;;;;;;;32.26;39.12;102708.03;7352438;19;19942;-57
2023/05/25 11:17:02;;;;;;;;;;;;;;;32.56;38.03;102696.53;7354992;19;20469;-57
2023/05/25 11:19:37;;;;;;;;;;;;;;;32.91;38.28;102695.38;7351717;19;19926;-57
2023/05/25 11:22:11;;;;;;;;;;;;;;;33.29;37.40;102697.44;7354808;19;19935;-57
2023/05/25 11:24:36;;;;;;;;;;;;;;;33.67;38.45;102702.19;7350910;19;19914;-58
2023/05/25 11:27:04;;;;;;;;;;;;;;;33.98;36.50;102685.88;7350774;19;19921;-57
2023/05/25 11:29:30;;;;;;;;;;;;;;;34.33;36.74;102693.47;7355490;19;19927;-57
2023/05/25 11:31:55;;;;;;;;;;;;;;;34.66;36.35;102684.06;7352795;19;20902;-56
2023/05/25 11:34:23;;;;;;;;;;;;;;;34.97;35.71;102689.31;7356160;19;20762;-57
2023/05/25 11:36:52;;;;;;;;;;;;;;;35.28;35.84;102682.66;7354030;19;19935;-57
2023/05/25 11:39:20;;;;;;;;;;;;;;;35.59;34.75;102688.69;7356962;19;20006;-57
2023/05/25 11:41:47;;;;;;;;;;;;;;;35.87;34.93;102686.78;7350384;19;19957;-56
2023/05/25 11:44:12;;;;;;;;;;;;;;;36.16;33.75;102688.47;7354427;19;20711;-57
2023/05/25 11:46:42;;;;;;;;;;;;;;;36.43;34.26;102673.09;7353562;19;19925;-57
2023/05/25 11:49:08;;;;;;;;;;;;;;;36.70;33.63;102675.69;7352904;19;19926;-57
2023/05/25 11:51:35;;;;;;;;;;;;;;;36.96;33.91;102674.88;7356557;19;19978;-57
2023/05/25 11:54:00;;;;;;;;;;;;;;;37.23;34.68;102671.94;7351533;19;19993;-56
2023/05/25 11:56:25;;;;;;;;;;;;;;;37.49;33.85;102677.38;7354329;19;20026;-57
2023/05/25 11:58:51;;;;;;;;;;;;;;;37.71;32.24;102678.63;7352926;19;19930;-56
2023/05/25 12:01:17;;;;;;;;;;;;;;;37.96;32.46;102674.09;7354829;19;20465;-57
2023/05/25 12:03:43;;;;;;;;;;;;;;;38.21;32.20;102675.00;7354214;19;20552;-57
2023/05/25 12:06:08;;;;;;;;;;;;;;;38.46;31.71;102673.16;7352105;19;19934;-57
2023/05/25 12:08:36;;;;;;;;;;;;;;;38.71;31.35;102673.97;7351653;19;19919;-56
2023/05/25 12:11:02;;;;;;;;;;;;;;;38.96;31.10;102679.44;7354337;19;19930;-56
2023/05/25 12:13:27;;;;;;;;;;;;;;;39.20;32.20;102679.38;7353824;19;20149;-56
2023/05/25 12:15:56;;;;;;;;;;;;;;;39.40;31.40;102683.41;7355270;19;19937;-59
2023/05/25 12:18:22;;;;;;;;;;;;;;;39.40;30.75;102652.47;7348312;19;19919;-58
2023/05/25 12:20:47;;;;;;;;;;;;;;;39.78;30.32;102686.31;7352752;19;19919;-58
2023/05/25 12:23:13;;;;;;;;;;;;;;;39.98;30.48;102677.63;7348599;19;19915;-58
2023/05/25 12:25:38;;;;;;;;;;;;;;;40.18;30.13;102684.34;7353100;19;19915;-59
2023/05/25 12:28:10;;;;;;;;;;;;;;;40.40;29.74;102682.63;7346430;19;19936;-58
2023/05/25 12:30:36;;;;;;;;;;;;;;;40.63;29.17;102685.34;7343296;19;20392;-58